Time;durP1;ratioP1;P1;durP2;ratioP2;P2;SDS_P1;SDS_P2;PMS_P1;PMS_P2;Temp;Humidity;BMP_temperature;BMP_pressure;BME280_temperature;BME280_humidity;BME280_pressure;Samples;Min_cycle;Max_cycle;Signal;HPM_P1;HPM_P2
2022/11/15 00:01:09;;;;;;;17.65;8.82;;;9.60;88.90;;;;;;5055390;28;20037;-73
2022/11/15 00:03:34;;;;;;;19.98;8.60;;;9.70;88.60;;;;;;5055414;28;20029;-73
2022/11/15 00:06:04;;;;;;;18.17;8.80;;;9.60;89.20;;;;;;5055508;28;20030;-73
2022/11/15 00:08:31;;;;;;;19.58;9.00;;;9.60;88.90;;;;;;5055227;28;20032;-73
2022/11/15 00:10:58;;;;;;;21.10;9.63;;;9.60;89.00;;;;;;5055303;28;20033;-73
2022/11/15 00:13:24;;;;;;;20.30;8.70;;;9.70;89.00;;;;;;5055228;28;20029;-73
2022/11/15 00:15:50;;;;;;;25.15;9.75;;;9.70;89.10;;;;;;5055193;28;20029;-73
2022/11/15 00:18:17;;;;;;;17.92;9.15;;;9.70;89.00;;;;;;5055145;28;20056;-72
2022/11/15 00:20:42;;;;;;;18.98;8.40;;;9.70;89.30;;;;;;5054981;28;20084;-72
2022/11/15 00:23:08;;;;;;;20.48;9.45;;;9.70;89.80;;;;;;5055051;28;20029;-72
2022/11/15 00:25:34;;;;;;;18.80;8.52;;;9.70;90.00;;;;;;5037323;28;20033;-73
2022/11/15 00:28:00;;;;;;;17.80;8.48;;;9.70;90.00;;;;;;5054928;28;20049;-72
2022/11/15 00:30:27;;;;;;;19.95;10.00;;;9.70;89.70;;;;;;5054906;28;20025;-72
2022/11/15 00:32:52;;;;;;;22.30;9.25;;;9.80;90.10;;;;;;5054876;28;20036;-72
2022/11/15 00:35:19;;;;;;;20.98;9.25;;;9.80;90.20;;;;;;5054806;28;20053;-72
2022/11/15 00:37:46;;;;;;;22.00;10.23;;;9.80;90.10;;;;;;5054775;28;20370;-72
2022/11/15 00:40:14;;;;;;;17.55;9.30;;;9.90;90.00;;;;;;5054244;28;20045;-72
2022/11/15 00:42:40;;;;;;;21.05;10.02;;;9.90;90.00;;;;;;5021007;28;20042;-73
2022/11/15 00:45:07;;;;;;;21.45;8.98;;;9.90;90.00;;;;;;5053726;28;20034;-72
2022/11/15 00:47:32;;;;;;;21.45;9.40;;;10.00;89.80;;;;;;5037078;28;20085;-73
2022/11/15 00:49:58;;;;;;;19.08;8.98;;;10.00;90.00;;;;;;5054530;28;20053;-73
2022/11/15 00:52:23;;;;;;;22.30;9.82;;;10.00;90.30;;;;;;5054465;28;20045;-72
2022/11/15 00:54:49;;;;;;;20.77;9.45;;;10.00;90.20;;;;;;5037021;28;20030;-72
2022/11/15 00:57:15;;;;;;;19.40;10.02;;;10.00;90.40;;;;;;5020579;28;20025;-73
2022/11/15 00:59:40;;;;;;;20.60;8.68;;;10.00;90.50;;;;;;5054402;28;20040;-73
2022/11/15 01:02:06;;;;;;;21.10;9.65;;;10.00;90.20;;;;;;5036947;28;20025;-72
2022/11/15 01:04:31;;;;;;;17.20;9.85;;;10.00;90.30;;;;;;5054216;28;20072;-72
2022/11/15 01:06:57;;;;;;;19.63;9.13;;;10.10;90.10;;;;;;5054197;28;20025;-72
2022/11/15 01:09:23;;;;;;;17.88;9.50;;;10.10;90.50;;;;;;5036656;28;20033;-73
2022/11/15 01:11:48;;;;;;;19.35;8.80;;;10.10;90.10;;;;;;5054099;28;20060;-72
2022/11/15 01:14:14;;;;;;;22.17;8.95;;;10.10;90.20;;;;;;5020321;28;20040;-73
2022/11/15 01:16:40;;;;;;;19.75;8.93;;;10.10;90.20;;;;;;5036507;28;20038;-73
2022/11/15 01:19:05;;;;;;;22.95;9.80;;;10.10;90.10;;;;;;5036505;28;20030;-72
2022/11/15 01:21:31;;;;;;;19.85;8.32;;;10.10;90.10;;;;;;5053971;28;20033;-73
2022/11/15 01:23:57;;;;;;;20.38;9.18;;;10.10;90.00;;;;;;5036403;28;20508;-72
2022/11/15 01:26:24;;;;;;;20.25;9.15;;;10.10;90.00;;;;;;5053837;28;20030;-72
2022/11/15 01:28:49;;;;;;;18.50;9.10;;;10.10;90.00;;;;;;5036527;28;20029;-72
2022/11/15 01:31:18;;;;;;;20.42;9.05;;;10.20;90.00;;;;;;5053765;28;20032;-73
2022/11/15 01:33:43;;;;;;;19.92;9.38;;;10.10;90.30;;;;;;5053745;28;20020;-72
2022/11/15 01:36:24;;;;;;;17.98;8.48;;;10.10;90.30;;;;;;5053671;28;20033;-73
2022/11/15 01:38:57;;;;;;;20.50;9.30;;;10.20;90.10;;;;;;5053639;28;20022;-72
2022/11/15 01:41:29;;;;;;;19.27;9.20;;;10.20;90.00;;;;;;5053534;28;20052;-73
2022/11/15 01:43:57;;;;;;;15.90;9.18;;;10.20;90.00;;;;;;5053572;28;20037;-72
2022/11/15 01:46:29;;;;;;;21.63;9.13;;;10.20;90.00;;;;;;5052534;28;20033;-72
2022/11/15 01:48:58;;;;;;;19.55;9.30;;;10.20;90.00;;;;;;5036069;28;20033;-73
2022/11/15 01:51:28;;;;;;;19.70;9.38;;;10.20;90.00;;;;;;5053460;28;20051;-72
2022/11/15 01:53:59;;;;;;;21.75;8.77;;;10.30;90.40;;;;;;5053465;28;20017;-72
2022/11/15 01:56:29;;;;;;;18.85;9.10;;;10.30;90.20;;;;;;5052922;28;20072;-72
2022/11/15 01:58:58;;;;;;;19.08;9.50;;;10.30;90.10;;;;;;5053363;28;20014;-72
2022/11/15 02:01:25;;;;;;;20.52;9.63;;;10.30;90.10;;;;;;5053460;28;20018;-72
2022/11/15 02:03:53;;;;;;;17.17;8.70;;;10.30;90.20;;;;;;5053280;28;20030;-73
2022/11/15 02:06:21;;;;;;;22.23;9.57;;;10.30;90.20;;;;;;5035716;28;20025;-72
2022/11/15 02:08:47;;;;;;;19.83;9.50;;;10.40;90.20;;;;;;5053176;28;20113;-73
2022/11/15 02:11:13;;;;;;;18.55;9.20;;;10.40;90.20;;;;;;5035685;28;20021;-72
2022/11/15 02:13:39;;;;;;;18.90;9.30;;;10.40;90.20;;;;;;5035928;28;20040;-72
2022/11/15 02:16:08;;;;;;;18.10;8.73;;;10.40;90.40;;;;;;5053141;28;20026;-72
2022/11/15 02:18:39;;;;;;;17.08;8.65;;;10.40;90.40;;;;;;5053132;28;20030;-73
2022/11/15 02:21:17;;;;;;;15.57;8.88;;;10.40;90.70;;;;;;5053215;28;20353;-73
2022/11/15 02:24:05;;;;;;;20.00;9.82;;;10.50;90.70;;;;;;5053272;28;20018;-73
2022/11/15 02:26:58;;;;;;;18.80;9.35;;;10.50;91.00;;;;;;5053183;28;20030;-72
2022/11/15 02:29:59;;;;;;;20.20;9.55;;;10.50;91.40;;;;;;5053080;28;20021;-72
2022/11/15 02:32:43;;;;;;;16.48;9.32;;;10.50;91.90;;;;;;4937803;29;20048;-72
2022/11/15 02:35:31;;;;;;;23.02;9.70;;;10.50;91.20;;;;;;5045178;28;20038;-72
2022/11/15 02:38:02;;;;;;;18.60;9.38;;;10.50;91.90;;;;;;5053119;28;20017;-72
2022/11/15 02:40:58;;;;;;;19.52;9.68;;;10.50;92.60;;;;;;5052691;28;20049;-72
2022/11/15 02:43:56;;;;;;;21.90;9.38;;;10.60;92.40;;;;;;5043020;28;20037;-72
2022/11/15 02:47:12;;;;;;;20.85;10.43;;;10.60;93.10;;;;;;5033262;28;20045;-72
2022/11/15 02:49:13;;;;;;;21.80;10.07;;;10.60;93.10;;;;;;5052706;28;20036;-72
2022/11/15 02:51:41;;;;;;;18.73;9.65;;;10.70;93.10;;;;;;5051786;28;20121;-72
2022/11/15 02:54:06;;;;;;;21.85;10.32;;;10.70;93.60;;;;;;5052824;28;20094;-72
2022/11/15 02:56:32;;;;;;;21.98;10.35;;;10.70;93.90;;;;;;5052772;28;20041;-72
2022/11/15 02:59:23;;;;;;;19.80;9.65;;;10.80;94.20;;;;;;5052666;28;20056;-72
2022/11/15 03:02:10;;;;;;;17.58;9.55;;;10.80;94.20;;;;;;5052757;28;20018;-72
2022/11/15 03:04:51;;;;;;;22.25;9.20;;;10.80;94.40;;;;;;5035155;28;20109;-72
2022/11/15 03:07:25;;;;;;;21.30;10.60;;;10.90;94.40;;;;;;5055507;28;20369;-73
2022/11/15 03:10:09;;;;;;;18.30;9.30;;;11.00;94.20;;;;;;5055469;28;20040;-72
2022/11/15 03:12:48;;;;;;;20.10;9.70;;;11.00;94.30;;;;;;5056432;28;20028;-73
2022/11/15 03:15:35;;;;;;;18.17;9.70;;;11.00;94.70;;;;;;5056384;28;20036;-72
2022/11/15 03:18:06;;;;;;;24.00;10.10;;;11.10;94.80;;;;;;5056362;28;20021;-73
2022/11/15 03:20:34;;;;;;;21.67;9.38;;;11.10;94.70;;;;;;5056337;28;20109;-72
2022/11/15 03:23:18;;;;;;;21.55;10.18;;;11.10;94.90;;;;;;5056215;28;20018;-72
2022/11/15 03:25:48;;;;;;;20.52;9.93;;;11.10;95.40;;;;;;5038966;28;20045;-73
2022/11/15 03:28:27;;;;;;;18.40;9.07;;;11.20;95.00;;;;;;5055131;28;20076;-73
2022/11/15 03:30:55;;;;;;;21.58;10.57;;;11.20;95.00;;;;;;5056073;28;20029;-73
2022/11/15 03:33:21;;;;;;;21.10;9.50;;;11.30;94.90;;;;;;5056124;28;20025;-72
2022/11/15 03:35:48;;;;;;;24.23;10.57;;;11.30;94.80;;;;;;5055023;28;20022;-73
2022/11/15 03:38:25;;;;;;;21.65;9.63;;;11.30;94.80;;;;;;5054979;28;20097;-73
2022/11/15 03:41:08;;;;;;;21.08;10.00;;;11.40;94.90;;;;;;5055619;28;20037;-72
2022/11/15 03:43:50;;;;;;;19.15;9.68;;;11.40;94.90;;;;;;5054969;28;20113;-72
2022/11/15 03:46:19;;;;;;;;;;;11.40;95.00;;;;;;5056227;28;20022;-73
2022/11/15 03:48:52;;;;;;;20.50;9.25;;;11.40;94.90;;;;;;5055722;28;19968;-72
2022/11/15 03:51:19;;;;;;;19.95;10.27;;;11.40;95.00;;;;;;5055678;28;20025;-73
2022/11/15 03:53:45;;;;;;;23.45;10.48;;;11.40;94.80;;;;;;5055641;28;20029;-72
2022/11/15 03:56:11;;;;;;;20.10;9.80;;;11.50;95.00;;;;;;5038281;28;20033;-72
2022/11/15 03:58:36;;;;;;;19.77;9.50;;;11.50;94.90;;;;;;5055551;28;20031;-72
2022/11/15 04:01:02;;;;;;;19.42;10.15;;;11.50;94.90;;;;;;5055408;28;20049;-72
2022/11/15 04:03:28;;;;;;;22.85;10.35;;;11.50;94.80;;;;;;5055442;28;20030;-73
2022/11/15 04:05:53;;;;;;;23.30;10.05;;;11.50;95.30;;;;;;5055401;28;20044;-72
2022/11/15 04:08:19;;;;;;;23.65;10.25;;;11.60;95.10;;;;;;5055291;28;20468;-72
2022/11/15 04:10:44;;;;;;;27.90;11.43;;;11.60;95.10;;;;;;5055307;28;20040;-73
2022/11/15 04:13:10;;;;;;;26.58;11.48;;;11.60;95.00;;;;;;5055298;28;20089;-72
2022/11/15 04:15:36;;;;;;;25.20;11.00;;;11.70;95.10;;;;;;5055240;28;20030;-73
2022/11/15 04:18:02;;;;;;;23.83;10.80;;;11.60;95.20;;;;;;5054658;28;20068;-72
2022/11/15 04:26:14;;;;;;;23.55;10.75;;;11.70;95.30;;;;;;5055170;28;20040;-72
2022/11/15 04:29:34;;;;;;;24.13;10.32;;;11.70;95.30;;;;;;5055020;28;20027;-73
2022/11/15 04:31:26;;;;;;;24.15;10.95;;;11.70;95.40;;;;;;5054834;28;20093;-72
2022/11/15 04:33:52;;;;;;;24.67;11.02;;;11.70;95.40;;;;;;5054893;28;20052;-72
2022/11/15 04:39:02;;;;;;;26.38;11.32;;;11.70;95.30;;;;;;5054987;28;20084;-72
2022/11/15 04:41:28;;;;;;;21.55;10.05;;;11.80;95.20;;;;;;5053597;28;20049;-72
2022/11/15 04:43:54;;;;;;;23.70;11.18;;;11.80;95.10;;;;;;5037355;28;20032;-72
2022/11/15 04:46:20;;;;;;;23.88;11.93;;;11.80;95.00;;;;;;5054667;28;20022;-72
2022/11/15 04:48:46;;;;;;;26.17;11.80;;;11.90;94.60;;;;;;5053576;28;20088;-72
2022/11/15 04:51:11;;;;;;;21.60;10.40;;;11.90;94.50;;;;;;5037211;28;20026;-72
2022/11/15 04:53:37;;;;;;;25.02;11.25;;;11.90;94.40;;;;;;5054502;28;20560;-72
2022/11/15 04:56:03;;;;;;;20.70;10.30;;;12.00;94.20;;;;;;5054428;28;20093;-73
2022/11/15 04:58:28;;;;;;;24.63;10.65;;;12.00;94.20;;;;;;5054358;28;20041;-73
2022/11/15 05:00:54;;;;;;;26.58;11.07;;;12.00;94.20;;;;;;5037022;28;20049;-73
2022/11/15 05:06:03;;;;;;;22.63;10.30;;;12.00;94.10;;;;;;5054419;28;20064;-72
2022/11/15 05:08:29;;;;;;;24.90;9.88;;;11.90;94.00;;;;;;5054147;28;20029;-73
2022/11/15 05:10:55;;;;;;;23.15;10.63;;;11.90;94.00;;;;;;5054155;28;20030;-73
2022/11/15 05:13:20;;;;;;;22.08;10.48;;;11.90;93.80;;;;;;5054111;28;20040;-73
2022/11/15 05:15:47;;;;;;;23.48;10.65;;;12.00;93.80;;;;;;5054087;28;20021;-72
2022/11/15 05:18:12;;;;;;;19.13;9.85;;;11.90;93.90;;;;;;5054035;28;20029;-72
2022/11/15 05:20:38;;;;;;;19.33;9.82;;;11.90;94.00;;;;;;5053899;28;20081;-73
2022/11/15 05:23:04;;;;;;;19.90;10.32;;;11.90;94.00;;;;;;5053920;28;20081;-73
2022/11/15 05:25:30;;;;;;;23.40;10.40;;;11.90;94.40;;;;;;5053905;28;20076;-73
2022/11/15 05:27:55;;;;;;;24.23;10.57;;;11.90;93.90;;;;;;5053897;28;20029;-72
2022/11/15 05:30:21;;;;;;;19.77;10.02;;;11.90;93.80;;;;;;5035550;28;20034;-73
2022/11/15 05:32:47;;;;;;;21.45;9.88;;;11.90;93.80;;;;;;5053888;28;20025;-73
2022/11/15 05:35:36;;;;;;;17.33;9.45;;;11.90;93.60;;;;;;5053729;28;20097;-72
2022/11/15 05:38:03;;;;;;;21.60;9.27;;;11.90;93.70;;;;;;5036124;28;20041;-73
2022/11/15 05:40:30;;;;;;;20.13;9.68;;;11.90;93.70;;;;;;5035881;28;20055;-73
2022/11/15 05:42:56;;;;;;;18.55;9.55;;;11.90;93.60;;;;;;5053590;28;20025;-73
2022/11/15 05:45:22;;;;;;;20.23;9.85;;;11.90;93.70;;;;;;5036294;28;20069;-73
2022/11/15 05:47:48;;;;;;;19.40;9.50;;;11.90;93.50;;;;;;5053510;28;20029;-73
2022/11/15 05:50:17;;;;;;;17.55;9.93;;;11.90;93.50;;;;;;5053513;28;20100;-73
2022/11/15 05:52:45;;;;;;;20.63;9.48;;;11.90;93.60;;;;;;5052464;28;20021;-73
2022/11/15 05:55:11;;;;;;;22.55;9.45;;;11.90;93.80;;;;;;5053423;28;20025;-73
2022/11/15 05:57:37;;;;;;;20.63;9.38;;;11.90;93.70;;;;;;5035811;28;20041;-72
2022/11/15 06:00:04;;;;;;;18.90;9.48;;;11.90;93.70;;;;;;5053249;28;20034;-72
2022/11/15 06:02:29;;;;;;;18.67;9.40;;;11.90;93.60;;;;;;5053288;28;20022;-72
2022/11/15 06:04:55;;;;;;;16.88;8.85;;;11.90;93.60;;;;;;5053260;28;20076;-73
2022/11/15 06:07:20;;;;;;;19.85;8.73;;;11.90;93.60;;;;;;5053201;28;20029;-73
2022/11/15 06:09:46;;;;;;;18.33;9.88;;;11.90;93.60;;;;;;5053147;28;20034;-73
2022/11/15 06:12:11;;;;;;;16.45;8.85;;;12.00;93.50;;;;;;5053312;28;20033;-72
2022/11/15 06:14:37;;;;;;;20.30;9.18;;;11.90;93.70;;;;;;5053174;28;20048;-72
2022/11/15 06:17:03;;;;;;;20.63;9.07;;;11.90;93.90;;;;;;5053135;28;20034;-73
2022/11/15 06:19:32;;;;;;;21.42;9.35;;;11.90;94.00;;;;;;5035563;28;20049;-72
2022/11/15 06:21:58;;;;;;;16.73;9.20;;;12.00;93.80;;;;;;5035647;28;20025;-73
2022/11/15 06:24:24;;;;;;;20.35;9.43;;;11.90;93.90;;;;;;5035787;28;20116;-73
2022/11/15 06:26:50;;;;;;;22.10;9.48;;;12.00;93.90;;;;;;5035603;28;20026;-73
2022/11/15 06:29:15;;;;;;;16.50;8.90;;;12.00;93.70;;;;;;5053028;28;20033;-73
2022/11/15 06:31:41;;;;;;;18.05;8.95;;;12.00;93.70;;;;;;5053013;28;20030;-73
2022/11/15 06:34:07;;;;;;;20.88;9.00;;;12.00;93.70;;;;;;5052889;28;20037;-73
2022/11/15 06:36:35;;;;;;;19.17;8.73;;;12.00;93.80;;;;;;5035568;28;20025;-73
2022/11/15 06:39:02;;;;;;;18.33;8.38;;;11.90;94.00;;;;;;5052849;28;20013;-73
2022/11/15 06:41:27;;;;;;;17.40;8.48;;;11.90;94.10;;;;;;5037004;28;20396;-73
2022/11/15 06:43:53;;;;;;;16.30;8.13;;;11.90;94.50;;;;;;5039420;28;20033;-73
2022/11/15 06:46:18;;;;;;;16.95;8.27;;;11.90;94.60;;;;;;5039433;28;20030;-73
2022/11/15 06:48:44;;;;;;;17.83;8.00;;;11.90;94.70;;;;;;5022927;28;20073;-73
2022/11/15 06:51:10;;;;;;;15.65;7.82;;;11.90;94.80;;;;;;5056738;28;20033;-73
2022/11/15 06:53:35;;;;;;;18.02;8.68;;;11.90;94.60;;;;;;5056760;28;20126;-73
2022/11/15 06:56:03;;;;;;;18.17;7.80;;;12.00;94.60;;;;;;5056676;28;20048;-73
2022/11/15 06:58:28;;;;;;;14.88;7.32;;;11.90;94.60;;;;;;5056649;28;20033;-73
2022/11/15 07:00:59;;;;;;;17.10;7.68;;;11.90;94.80;;;;;;5056571;28;20061;-73
2022/11/15 07:03:24;;;;;;;16.73;8.50;;;11.90;95.30;;;;;;5056619;28;20028;-73
2022/11/15 07:05:55;;;;;;;17.48;7.82;;;11.90;95.50;;;;;;5038952;28;20060;-73
2022/11/15 07:08:21;;;;;;;16.13;7.50;;;11.90;95.50;;;;;;5038986;28;20025;-73
2022/11/15 07:10:47;;;;;;;16.25;7.22;;;11.90;95.60;;;;;;5038859;28;20025;-73
2022/11/15 07:13:13;;;;;;;13.93;7.10;;;11.80;95.40;;;;;;5038869;28;20100;-73
2022/11/15 07:15:38;;;;;;;15.20;6.88;;;11.80;95.40;;;;;;5038926;28;20496;-73
2022/11/15 07:18:04;;;;;;;15.05;7.28;;;11.80;95.40;;;;;;5056255;28;20037;-73
2022/11/15 07:20:30;;;;;;;15.70;7.43;;;11.90;95.40;;;;;;5056148;28;20037;-73
2022/11/15 07:23:01;;;;;;;14.77;6.57;;;11.90;95.20;;;;;;5056204;28;20030;-73
2022/11/15 07:25:27;;;;;;;13.90;6.88;;;11.90;95.10;;;;;;5056196;28;20022;-74
2022/11/15 07:27:56;;;;;;;14.48;6.93;;;11.90;95.00;;;;;;5038619;28;20029;-74
2022/11/15 07:30:22;;;;;;;14.65;6.72;;;11.90;95.00;;;;;;5056098;28;20040;-74
2022/11/15 07:33:01;;;;;;;15.20;6.72;;;11.90;94.90;;;;;;5055979;28;20033;-74
2022/11/15 07:35:28;;;;;;;13.77;6.32;;;11.90;94.90;;;;;;5056199;28;20033;-74
2022/11/15 07:37:58;;;;;;;13.85;6.75;;;11.90;94.90;;;;;;5055947;28;20032;-74
2022/11/15 07:40:25;;;;;;;12.00;6.28;;;11.90;94.80;;;;;;5055780;28;20044;-74
2022/11/15 07:42:54;;;;;;;13.50;6.38;;;11.90;95.20;;;;;;5038387;28;20021;-73
2022/11/15 07:45:25;;;;;;;12.68;6.35;;;11.90;94.80;;;;;;5055776;28;20025;-73
2022/11/15 07:47:51;;;;;;;12.27;6.30;;;11.90;95.00;;;;;;5055762;28;20104;-73
2022/11/15 07:50:17;;;;;;;14.73;6.18;;;11.90;94.60;;;;;;5021938;28;20032;-73
2022/11/15 07:52:43;;;;;;;13.85;6.28;;;11.90;94.50;;;;;;5054818;28;20021;-73
2022/11/15 07:55:09;;;;;;;13.68;6.75;;;11.90;94.50;;;;;;5055627;28;20022;-73
2022/11/15 07:57:35;;;;;;;11.68;6.63;;;11.90;94.60;;;;;;5055573;28;20080;-74
2022/11/15 08:00:01;;;;;;;14.25;6.85;;;11.80;94.60;;;;;;5055461;28;20029;-74
2022/11/15 08:02:26;;;;;;;10.88;6.00;;;11.90;94.70;;;;;;5055475;28;20022;-74
2022/11/15 08:04:52;;;;;;;14.57;6.85;;;11.90;94.70;;;;;;5055443;28;20033;-74
2022/11/15 08:07:18;;;;;;;14.35;7.05;;;11.90;94.70;;;;;;5055406;28;20029;-74
2022/11/15 08:09:43;;;;;;;13.10;6.40;;;11.90;94.80;;;;;;5055291;28;20026;-74
2022/11/15 08:12:09;;;;;;;15.23;6.72;;;11.90;94.80;;;;;;5055210;28;20060;-74
2022/11/15 08:14:35;;;;;;;10.40;5.95;;;11.80;95.10;;;;;;5055268;28;20057;-74
2022/11/15 08:17:01;;;;;;;13.85;6.40;;;11.80;94.80;;;;;;5055200;28;20033;-74
2022/11/15 08:19:27;;;;;;;12.88;7.20;;;11.80;94.80;;;;;;5037535;28;20033;-73
2022/11/15 08:21:52;;;;;;;12.00;5.80;;;11.80;94.80;;;;;;5055121;28;20026;-74
2022/11/15 08:24:18;;;;;;;10.55;5.18;;;11.80;94.70;;;;;;5037628;28;20021;-73
2022/11/15 08:26:43;;;;;;;14.07;5.50;;;11.70;94.80;;;;;;5055019;28;20147;-74
2022/11/15 08:29:09;;;;;;;12.35;5.78;;;11.70;94.80;;;;;;5037497;28;20040;-74
2022/11/15 08:31:38;;;;;;;11.85;5.93;;;11.70;94.50;;;;;;5037443;28;20105;-74
2022/11/15 08:34:05;;;;;;;11.30;5.30;;;11.70;94.50;;;;;;5037348;28;20022;-74
2022/11/15 08:36:30;;;;;;;10.88;5.05;;;11.70;94.50;;;;;;5054827;28;20029;-74
2022/11/15 08:38:56;;;;;;;12.20;5.63;;;11.70;94.50;;;;;;5037304;28;20025;-74
2022/11/15 08:41:31;;;;;;;11.55;4.72;;;11.70;94.40;;;;;;5037022;28;20050;-74
2022/11/15 08:43:56;;;;;;;7.93;4.88;;;11.60;94.20;;;;;;5054747;28;20028;-74
2022/11/15 08:46:22;;;;;;;10.20;5.22;;;11.60;94.10;;;;;;5054764;28;20029;-74
2022/11/15 08:48:48;;;;;;;12.30;4.90;;;11.60;94.20;;;;;;5054599;28;20041;-74
2022/11/15 08:51:14;;;;;;;10.25;5.20;;;11.60;94.10;;;;;;5054550;28;20040;-73
2022/11/15 08:53:39;;;;;;;10.45;4.90;;;11.60;94.20;;;;;;5054509;28;20033;-74
2022/11/15 08:56:09;;;;;;;10.23;5.07;;;11.60;94.20;;;;;;5037117;28;20033;-74
2022/11/15 08:58:35;;;;;;;8.93;4.90;;;11.60;94.20;;;;;;5054409;28;20095;-73
2022/11/15 09:01:01;;;;;;;11.80;5.47;;;11.60;94.10;;;;;;5054290;28;20034;-74
2022/11/15 09:03:27;;;;;;;10.38;4.45;;;11.60;94.10;;;;;;5036960;28;20037;-74
2022/11/15 09:06:00;;;;;;;9.07;5.10;;;11.70;94.00;;;;;;5054189;28;20045;-74
2022/11/15 09:08:29;;;;;;;8.55;4.70;;;11.70;94.00;;;;;;5036766;28;20045;-74
2022/11/15 09:10:55;;;;;;;9.70;4.65;;;11.70;93.90;;;;;;5036617;28;20029;-74
2022/11/15 09:13:21;;;;;;;8.15;4.28;;;11.80;93.70;;;;;;5054272;28;20045;-74
2022/11/15 09:15:47;;;;;;;8.65;4.60;;;11.90;93.60;;;;;;5054088;28;20101;-74
2022/11/15 09:18:13;;;;;;;9.80;4.95;;;11.90;93.40;;;;;;5054057;28;20025;-74
2022/11/15 09:20:38;;;;;;;9.05;4.97;;;12.00;93.20;;;;;;5036393;28;20041;-74
2022/11/15 09:23:05;;;;;;;9.32;4.43;;;12.20;92.70;;;;;;5053980;28;20021;-74
2022/11/15 09:25:31;;;;;;;10.32;4.63;;;12.40;92.30;;;;;;5036521;28;20046;-73
2022/11/15 09:27:57;;;;;;;8.90;4.47;;;12.70;92.20;;;;;;5036380;28;20026;-74
2022/11/15 09:30:24;;;;;;;6.18;3.60;;;12.80;91.60;;;;;;5053821;28;20022;-74
2022/11/15 09:32:50;;;;;;;8.20;4.45;;;12.80;91.30;;;;;;5053770;28;20029;-74
2022/11/15 09:35:16;;;;;;;5.65;3.22;;;12.90;91.00;;;;;;5053773;28;20033;-74
2022/11/15 09:37:41;;;;;;;7.10;3.58;;;12.90;90.60;;;;;;5036241;28;20031;-74
2022/11/15 09:40:11;;;;;;;5.88;3.35;;;12.90;90.90;;;;;;5053508;28;20053;-74
2022/11/15 09:43:03;;;;;;;6.35;3.40;;;13.00;90.60;;;;;;5053604;28;20044;-74
2022/11/15 09:45:31;;;;;;;7.95;3.83;;;13.10;90.80;;;;;;5053623;28;20095;-74
2022/11/15 09:48:06;;;;;;;4.93;3.00;;;13.00;90.30;;;;;;5053572;28;20045;-74
2022/11/15 09:50:48;;;;;;;7.25;3.00;;;13.00;90.10;;;;;;5053525;28;20044;-74
2022/11/15 09:53:31;;;;;;;7.13;3.13;;;12.90;89.80;;;;;;5053499;28;20457;-74
2022/11/15 09:55:56;;;;;;;4.88;2.78;;;12.80;88.90;;;;;;5053610;28;20264;-74
2022/11/15 09:58:33;;;;;;;4.05;2.50;;;12.80;89.80;;;;;;5053372;28;20036;-74
2022/11/15 10:01:02;;;;;;;4.53;2.60;;;12.80;88.70;;;;;;5053409;28;20044;-74
2022/11/15 10:03:34;;;;;;;6.05;2.85;;;12.60;88.80;;;;;;5053354;28;20033;-74
2022/11/15 10:06:06;;;;;;;4.93;2.60;;;12.70;88.80;;;;;;5035870;28;20021;-74
2022/11/15 10:08:31;;;;;;;3.00;2.30;;;12.70;89.10;;;;;;5053223;28;20018;-73
2022/11/15 10:11:10;;;;;;;4.22;2.30;;;12.70;87.90;;;;;;5053219;28;20052;-74
2022/11/15 10:13:41;;;;;;;5.00;2.30;;;12.70;88.30;;;;;;5053248;28;20373;-74
2022/11/15 10:16:14;;;;;;;5.28;1.83;;;12.80;87.50;;;;;;5052864;28;20037;-74
2022/11/15 10:19:02;;;;;;;3.72;2.40;;;12.80;85.50;;;;;;5035728;28;20025;-74
2022/11/15 10:22:04;;;;;;;4.10;1.17;;;12.80;86.60;;;;;;5053190;28;20097;-74
2022/11/15 10:24:36;;;;;;;4.60;1.48;;;12.80;83.50;;;;;;5053136;28;20032;-74
2022/11/15 10:27:11;;;;;;;4.97;1.70;;;12.70;83.20;;;;;;5053124;28;20037;-74
2022/11/15 10:29:44;;;;;;;2.33;1.23;;;12.70;84.50;;;;;;5053110;28;20029;-74
2022/11/15 10:32:12;;;;;;;4.47;1.63;;;12.70;82.70;;;;;;5035582;28;20104;-74
2022/11/15 10:34:37;;;;;;;2.90;1.55;;;12.70;81.70;;;;;;5053030;28;20021;-73
2022/11/15 10:37:03;;;;;;;2.25;1.10;;;12.70;82.20;;;;;;5052993;28;20036;-74
2022/11/15 10:39:29;;;;;;;2.28;1.45;;;12.80;80.90;;;;;;5018876;28;20034;-74
2022/11/15 10:41:55;;;;;;;3.53;1.50;;;12.80;81.00;;;;;;5035651;28;20117;-74
2022/11/15 10:44:22;;;;;;;3.38;1.23;;;12.90;79.80;;;;;;5053028;28;20515;-74
2022/11/15 10:47:05;;;;;;;2.22;1.33;;;12.90;79.70;;;;;;5052866;28;20075;-74
2022/11/15 10:49:33;;;;;;;4.60;1.35;;;12.90;78.40;;;;;;5052926;28;20036;-74
2022/11/15 10:52:16;;;;;;;5.75;1.98;;;12.80;78.60;;;;;;5052851;28;20093;-74
2022/11/15 10:54:46;;;;;;;2.70;1.80;;;12.90;79.80;;;;;;5052858;28;20022;-74
2022/11/15 10:57:22;;;;;;;6.43;1.35;;;12.80;79.00;;;;;;5035412;28;20116;-74
2022/11/15 11:00:10;;;;;;;1.92;1.08;;;12.80;78.20;;;;;;5052697;28;20035;-74
2022/11/15 11:02:39;;;;;;;1.58;1.23;;;12.70;77.00;;;;;;5051798;28;20093;-74
2022/11/15 11:05:27;;;;;;;4.28;1.33;;;12.70;77.40;;;;;;5052755;28;20013;-74
2022/11/15 11:08:16;;;;;;;2.72;1.30;;;12.70;77.60;;;;;;5052781;28;20118;-74
2022/11/15 11:10:56;;;;;;;3.85;2.00;;;12.70;77.30;;;;;;5052850;28;20049;-74
2022/11/15 11:13:27;;;;;;;1.35;1.10;;;12.80;78.50;;;;;;5052547;28;20030;-74
2022/11/15 11:16:11;;;;;;;3.17;1.38;;;12.80;78.10;;;;;;5052646;28;20089;-74
2022/11/15 11:18:51;;;;;;;3.03;1.30;;;12.80;78.30;;;;;;5052603;28;20064;-74
2022/11/15 11:21:27;;;;;;;3.10;1.50;;;12.80;79.90;;;;;;5052694;28;20112;-74
2022/11/15 11:24:15;;;;;;;2.60;1.77;;;12.90;79.10;;;;;;5052572;28;20152;-74
2022/11/15 11:27:11;;;;;;;5.07;1.98;;;13.00;78.90;;;;;;5052549;28;20029;-74
2022/11/15 11:29:56;;;;;;;2.85;1.50;;;13.00;78.90;;;;;;5055719;28;20078;-74
2022/11/15 11:32:40;;;;;;;6.25;1.90;;;13.20;78.70;;;;;;5038731;28;20061;-74
2022/11/15 11:35:22;;;;;;;3.53;1.65;;;13.30;78.80;;;;;;5056185;28;20052;-74
2022/11/15 11:38:00;;;;;;;3.90;1.42;;;13.40;77.10;;;;;;5056074;28;20032;-74
2022/11/15 11:40:34;;;;;;;3.33;1.83;;;13.40;77.90;;;;;;5055477;28;20045;-74
2022/11/15 11:43:12;;;;;;;3.33;1.70;;;13.40;76.70;;;;;;5055879;28;20025;-74
2022/11/15 11:45:57;;;;;;;4.68;1.70;;;13.40;75.90;;;;;;5055857;28;20030;-74
2022/11/15 11:48:35;;;;;;;6.57;1.60;;;13.40;74.30;;;;;;5055818;28;20029;-74
2022/11/15 11:51:12;;;;;;;4.13;1.42;;;13.30;74.20;;;;;;5055928;28;20033;-74
2022/11/15 11:53:45;;;;;;;4.78;1.40;;;13.30;74.30;;;;;;5038286;28;20093;-74
2022/11/15 11:56:25;;;;;;;3.03;1.30;;;13.30;75.30;;;;;;5038220;28;20032;-74
2022/11/15 11:58:54;;;;;;;1.90;1.20;;;13.30;73.30;;;;;;5055658;28;20045;-74
2022/11/15 12:01:26;;;;;;;3.40;1.33;;;13.30;74.80;;;;;;5055501;28;20025;-74
2022/11/15 12:03:54;;;;;;;;;;;13.40;72.50;;;;;;5055935;28;20037;-74
2022/11/15 12:06:47;;;;;;;2.83;1.13;;;13.40;70.90;;;;;;5055582;28;19913;-74
2022/11/15 12:09:50;;;;;;;3.47;1.15;;;13.40;72.20;;;;;;5037805;28;20021;-74
2022/11/15 12:12:23;;;;;;;1.38;0.93;;;13.50;71.30;;;;;;5055345;28;20018;-74
2022/11/15 12:14:55;;;;;;;2.75;1.10;;;13.60;73.40;;;;;;5055326;28;20029;-74
2022/11/15 12:17:26;;;;;;;3.95;1.02;;;13.80;73.40;;;;;;5055023;28;20021;-74
2022/11/15 12:19:56;;;;;;;3.63;1.40;;;13.90;73.20;;;;;;5055164;28;20025;-74
2022/11/15 12:22:41;;;;;;;2.20;0.95;;;14.00;71.80;;;;;;5055204;28;20018;-74
2022/11/15 12:25:20;;;;;;;3.47;1.20;;;14.00;72.60;;;;;;5055111;28;20025;-74
2022/11/15 12:28:08;;;;;;;2.45;1.15;;;14.10;73.30;;;;;;5055083;28;20473;-74
2022/11/15 12:30:54;;;;;;;2.63;1.20;;;14.10;72.50;;;;;;5055045;28;20061;-74
2022/11/15 12:33:41;;;;;;;3.80;1.00;;;14.10;70.90;;;;;;5054907;28;20072;-74
2022/11/15 12:36:35;;;;;;;1.90;1.17;;;14.10;71.80;;;;;;5055106;28;20025;-74
2022/11/15 12:39:04;;;;;;;3.15;1.20;;;14.10;71.00;;;;;;5054578;28;20089;-74
2022/11/15 12:41:35;;;;;;;4.00;1.20;;;14.10;70.80;;;;;;5054555;28;20092;-74
2022/11/15 12:44:03;;;;;;;2.25;1.40;;;14.10;72.50;;;;;;5054788;28;20032;-74
2022/11/15 12:46:29;;;;;;;3.00;1.13;;;14.10;72.20;;;;;;5037136;28;20036;-74
2022/11/15 12:49:09;;;;;;;4.85;1.40;;;14.20;72.60;;;;;;5054655;28;20045;-74
2022/11/15 12:51:47;;;;;;;4.57;1.40;;;14.20;72.50;;;;;;5054625;28;20021;-74
2022/11/15 12:54:22;;;;;;;2.80;0.88;;;14.20;70.80;;;;;;5037101;28;20029;-74
2022/11/15 12:57:03;;;;;;;1.90;0.90;;;14.10;70.00;;;;;;5054508;28;20029;-74
2022/11/15 13:00:01;;;;;;;2.40;1.08;;;14.00;69.60;;;;;;5054369;28;20029;-74
2022/11/15 13:02:33;;;;;;;6.13;1.33;;;14.00;69.30;;;;;;5054408;28;20539;-74
2022/11/15 13:05:19;;;;;;;;;;;14.00;69.00;;;;;;5054829;28;20029;-74
2022/11/15 13:07:44;;;;;;;2.05;1.00;;;13.90;69.90;;;;;;5053517;28;19905;-74
2022/11/15 13:10:13;;;;;;;3.42;1.10;;;14.00;71.40;;;;;;5054195;28;20081;-74